createdAt,value
2018-05-03T00:00:20.275Z,17.12
2018-05-03T00:02:48.889Z,17.07
2018-05-03T00:05:17.451Z,17.06
2018-05-03T00:07:46.003Z,17.01
2018-05-03T00:10:14.562Z,16.96
2018-05-03T00:12:43.126Z,16.90
2018-05-03T00:15:11.729Z,16.90
2018-05-03T00:17:40.285Z,16.79
2018-05-03T00:20:08.854Z,16.72
2018-05-03T00:22:37.425Z,16.68
2018-05-03T00:25:05.998Z,16.69
2018-05-03T00:27:34.562Z,16.51
2018-05-03T00:30:04.495Z,16.43
2018-05-03T00:32:33.047Z,16.45
2018-05-03T00:35:01.244Z,16.48
2018-05-03T00:37:29.799Z,16.49
2018-05-03T00:39:58.358Z,16.49
2018-05-03T00:42:26.910Z,16.48
2018-05-03T00:44:55.467Z,16.43
2018-05-03T00:47:24.037Z,16.38
2018-05-03T00:49:52.605Z,16.30
2018-05-03T00:52:21.196Z,16.27
2018-05-03T00:54:49.057Z,16.27
2018-05-03T00:57:17.280Z,16.26
2018-05-03T00:59:45.848Z,16.24
2018-05-03T01:04:48.366Z,16.22
2018-05-03T01:07:16.923Z,16.16
2018-05-03T01:09:45.483Z,16.10
2018-05-03T01:12:14.038Z,16.05
2018-05-03T01:14:42.629Z,16.10
2018-05-03T01:17:11.555Z,16.11
2018-05-03T01:19:40.119Z,16.13
2018-05-03T01:22:08.719Z,16.09
2018-05-03T01:24:37.279Z,16.10
2018-05-03T01:27:05.845Z,16.11
2018-05-03T01:29:34.410Z,16.09
2018-05-03T01:32:02.983Z,16.07
2018-05-03T01:34:31.534Z,16.05
2018-05-03T01:37:00.091Z,15.97
2018-05-03T01:39:28.644Z,15.89
2018-05-03T01:41:57.247Z,15.81
2018-05-03T01:44:25.807Z,15.77
2018-05-03T01:46:54.550Z,15.66
2018-05-03T01:49:23.113Z,15.67
2018-05-03T01:51:51.667Z,15.65
2018-05-03T01:54:20.223Z,15.56
2018-05-03T01:56:48.788Z,15.52
2018-05-03T01:59:17.372Z,15.42
2018-05-03T02:01:45.698Z,15.38
2018-05-03T02:04:14.347Z,15.33
2018-05-03T02:06:42.899Z,15.23
2018-05-03T02:09:11.476Z,15.22
2018-05-03T02:11:40.036Z,15.26
2018-05-03T02:14:08.622Z,15.28
2018-05-03T02:16:37.179Z,15.33
2018-05-03T02:19:05.743Z,15.34
2018-05-03T02:21:34.305Z,15.28
2018-05-03T02:24:02.860Z,15.31
2018-05-03T02:26:31.432Z,15.23
2018-05-03T02:28:59.991Z,15.14
2018-05-03T02:31:28.583Z,15.09
2018-05-03T02:33:57.139Z,15.05
2018-05-03T02:36:26.721Z,15.03
2018-05-03T02:38:55.311Z,15.04
2018-05-03T02:41:23.871Z,15.05
2018-05-03T02:43:52.476Z,15.05
2018-05-03T02:46:21.026Z,15.04
2018-05-03T02:48:49.622Z,15.04
2018-05-03T02:51:18.197Z,15.02
2018-05-03T02:53:47.729Z,15.04
2018-05-03T02:56:16.302Z,15.04
2018-05-03T02:58:55.959Z,15.08
2018-05-03T03:01:41.121Z,15.14
2018-05-03T03:04:26.106Z,15.09
2018-05-03T03:10:33.927Z,15.06
2018-05-03T03:16:52.958Z,15.01
2018-05-03T03:22:46.263Z,14.88
2018-05-03T03:28:54.367Z,14.80
2018-05-03T03:31:39.524Z,14.75
2018-05-03T03:34:13.381Z,14.74
2018-05-03T03:40:02.745Z,14.77
2018-05-03T03:45:39.653Z,14.84
2018-05-03T03:48:07.917Z,14.95
2018-05-03T03:50:36.488Z,15.01
2018-05-03T03:53:05.159Z,15.08
2018-05-03T03:55:33.715Z,15.14
2018-05-03T03:58:02.349Z,15.17
2018-05-03T04:00:31.054Z,15.18
2018-05-03T04:02:59.636Z,15.24
2018-05-03T04:05:28.212Z,15.27
2018-05-03T04:07:56.785Z,15.34
2018-05-03T04:10:25.346Z,15.45
2018-05-03T04:12:53.900Z,15.47
2018-05-03T04:15:22.522Z,15.53
2018-05-03T04:18:02.116Z,15.56
2018-05-03T04:23:52.073Z,15.68
2018-05-03T04:26:20.640Z,15.71
2018-05-03T04:28:49.195Z,15.65
2018-05-03T04:31:17.759Z,15.79
2018-05-03T04:33:46.321Z,16.19
2018-05-03T04:36:14.881Z,16.87
2018-05-03T04:38:43.453Z,17.44
2018-05-03T04:41:12.074Z,17.72
2018-05-03T04:43:40.686Z,18.07
2018-05-03T04:46:09.238Z,18.01
2018-05-03T04:48:38.573Z,18.35
2018-05-03T04:51:07.138Z,19.15
2018-05-03T04:53:35.713Z,19.89
2018-05-03T04:56:04.324Z,20.47
2018-05-03T04:58:32.918Z,21.16
2018-05-03T05:01:01.671Z,21.77
2018-05-03T05:03:30.232Z,21.78
2018-05-03T05:05:58.796Z,22.26
2018-05-03T05:08:27.359Z,22.42
2018-05-03T05:10:55.977Z,22.54
2018-05-03T05:13:24.580Z,22.77
2018-05-03T05:15:52.958Z,22.78
2018-05-03T05:18:21.534Z,22.40
2018-05-03T05:20:50.116Z,22.16
2018-05-03T05:23:18.704Z,21.78
2018-05-03T05:25:47.261Z,21.47
2018-05-03T05:28:15.831Z,21.03
2018-05-03T05:30:44.460Z,20.79
2018-05-03T05:33:13.148Z,20.47
2018-05-03T05:35:41.875Z,20.34
2018-05-03T05:38:10.435Z,20.22
2018-05-03T05:40:39.003Z,20.17
2018-05-03T05:43:07.668Z,20.10
2018-05-03T05:45:36.282Z,20.19
2018-05-03T05:48:04.877Z,20.07
2018-05-03T05:50:33.446Z,20.19
2018-05-03T05:53:02.047Z,20.18
2018-05-03T05:55:30.598Z,20.18
2018-05-03T05:57:59.163Z,20.00
2018-05-03T06:00:27.754Z,19.96
2018-05-03T06:02:56.330Z,20.09
2018-05-03T06:05:24.921Z,20.06
2018-05-03T06:07:53.485Z,19.97
2018-05-03T06:10:22.144Z,19.99
2018-05-03T06:12:50.932Z,19.92
2018-05-03T06:15:19.520Z,19.72
2018-05-03T06:17:48.089Z,19.64
2018-05-03T06:20:16.639Z,19.70
2018-05-03T06:22:45.294Z,19.69
2018-05-03T06:25:13.907Z,19.64
2018-05-03T06:27:42.490Z,19.48
2018-05-03T06:30:11.087Z,19.45
2018-05-03T06:32:39.688Z,19.47
2018-05-03T06:35:08.260Z,19.60
2018-05-03T06:37:36.831Z,19.54
2018-05-03T06:40:05.483Z,19.71
2018-05-03T06:42:35.068Z,19.83
2018-05-03T06:45:03.678Z,19.98
2018-05-03T06:47:32.245Z,19.99
2018-05-03T06:50:00.853Z,20.05
2018-05-03T06:52:29.472Z,20.22
2018-05-03T06:54:58.047Z,20.28
2018-05-03T06:57:26.728Z,20.31
2018-05-03T06:59:55.023Z,20.27
2018-05-03T07:02:23.602Z,20.37
2018-05-03T07:04:52.160Z,20.47
2018-05-03T07:07:20.714Z,20.36
2018-05-03T07:09:49.320Z,20.43
2018-05-03T07:12:17.665Z,20.47
2018-05-03T07:14:46.292Z,20.42
2018-05-03T07:17:14.867Z,20.70
2018-05-03T07:19:43.572Z,20.98
2018-05-03T07:22:12.234Z,21.07
2018-05-03T07:24:41.056Z,21.18
2018-05-03T07:27:10.430Z,21.32
2018-05-03T07:29:38.674Z,21.39
2018-05-03T07:32:07.244Z,21.14
2018-05-03T07:34:35.857Z,21.30
2018-05-03T07:37:04.128Z,21.53
2018-05-03T07:39:32.683Z,21.45
2018-05-03T07:42:01.248Z,21.58
2018-05-03T07:44:29.840Z,21.61
2018-05-03T07:46:58.395Z,21.55
2018-05-03T07:49:26.982Z,21.51
2018-05-03T07:51:56.562Z,21.56
2018-05-03T07:54:25.130Z,21.21
2018-05-03T07:56:53.698Z,21.47
2018-05-03T07:59:22.254Z,21.79
2018-05-03T08:01:50.807Z,21.95
2018-05-03T08:04:19.364Z,22.12
2018-05-03T08:06:47.935Z,22.22
2018-05-03T08:09:16.485Z,22.30
2018-05-03T08:11:45.086Z,22.37
2018-05-03T08:14:13.644Z,22.25
2018-05-03T08:16:42.216Z,22.00
2018-05-03T08:19:10.847Z,21.92
2018-05-03T08:21:39.507Z,22.05
2018-05-03T08:24:08.102Z,22.18
2018-05-03T08:26:36.675Z,22.13
2018-05-03T08:29:05.244Z,22.01
2018-05-03T08:31:33.857Z,21.99
2018-05-03T08:34:02.418Z,21.93
2018-05-03T08:36:30.990Z,21.89
2018-05-03T08:38:59.568Z,21.87
2018-05-03T08:41:28.131Z,22.01
2018-05-03T08:43:56.728Z,22.19
2018-05-03T08:46:25.368Z,22.26
2018-05-03T08:48:53.925Z,22.46
2018-05-03T08:51:22.523Z,22.70
2018-05-03T08:53:51.105Z,22.81
2018-05-03T08:56:19.663Z,22.79
2018-05-03T08:58:48.251Z,22.99
2018-05-03T09:01:16.679Z,22.92
2018-05-03T09:03:45.415Z,22.81
2018-05-03T09:06:13.967Z,22.77
2018-05-03T09:08:42.553Z,22.76
2018-05-03T09:11:11.171Z,22.80
2018-05-03T09:13:39.864Z,22.95
2018-05-03T09:16:08.447Z,23.10
2018-05-03T09:18:37.003Z,23.10
2018-05-03T09:21:05.569Z,23.19
2018-05-03T09:23:34.130Z,23.28
2018-05-03T09:26:02.756Z,23.33
2018-05-03T09:28:31.317Z,23.29
2018-05-03T09:30:59.909Z,23.31
2018-05-03T09:33:28.515Z,23.27
2018-05-03T09:35:57.147Z,23.30
2018-05-03T09:38:25.762Z,23.27
2018-05-03T09:40:54.385Z,23.36
2018-05-03T09:43:22.940Z,23.40
2018-05-03T09:45:51.508Z,23.43
2018-05-03T09:48:20.077Z,23.47
2018-05-03T09:50:48.707Z,23.61
2018-05-03T09:53:17.270Z,23.82
2018-05-03T09:55:45.831Z,23.89
2018-05-03T09:58:14.392Z,23.95
2018-05-03T10:00:42.948Z,23.92
2018-05-03T10:03:11.503Z,23.90
2018-05-03T10:05:40.119Z,24.04
2018-05-03T10:08:08.681Z,24.11
2018-05-03T10:10:37.285Z,24.27
2018-05-03T10:13:06.012Z,24.22
2018-05-03T10:15:34.579Z,24.40
2018-05-03T10:18:03.147Z,24.63
2018-05-03T10:20:31.720Z,24.91
2018-05-03T10:23:00.280Z,25.09
2018-05-03T10:25:28.851Z,25.13
2018-05-03T10:27:57.448Z,25.08
2018-05-03T10:30:26.860Z,25.28
2018-05-03T10:32:55.428Z,25.48
2018-05-03T10:35:24.043Z,25.54
2018-05-03T10:37:52.594Z,25.77
2018-05-03T10:40:21.150Z,25.84
2018-05-03T10:42:49.726Z,25.64
2018-05-03T10:45:18.307Z,25.56
2018-05-03T10:47:46.867Z,25.66
2018-05-03T10:50:15.459Z,25.68
2018-05-03T10:52:44.084Z,25.78
2018-05-03T10:55:12.653Z,25.80
2018-05-03T10:57:41.224Z,25.75
2018-05-03T11:00:09.878Z,25.76
2018-05-03T11:02:38.430Z,25.81
2018-05-03T11:05:07.020Z,26.00
2018-05-03T11:07:35.625Z,26.37
2018-05-03T11:10:05.135Z,26.45
2018-05-03T11:12:33.713Z,26.53
2018-05-03T11:15:02.341Z,26.31
2018-05-03T11:17:30.898Z,26.04
2018-05-03T11:19:59.463Z,25.89
2018-05-03T11:22:28.027Z,25.80
2018-05-03T11:24:56.723Z,25.74
2018-05-03T11:27:25.293Z,25.79
2018-05-03T11:29:53.866Z,25.83
2018-05-03T11:32:22.510Z,25.76
2018-05-03T11:34:51.313Z,25.75
2018-05-03T11:37:19.638Z,25.76
2018-05-03T11:39:48.191Z,25.78
2018-05-03T11:42:16.754Z,25.71
2018-05-03T11:44:45.333Z,25.80
2018-05-03T11:47:13.891Z,25.75
2018-05-03T11:49:42.458Z,25.63
2018-05-03T11:52:11.031Z,25.46
2018-05-03T11:54:39.455Z,25.24
2018-05-03T11:57:08.182Z,25.14
2018-05-03T11:59:36.757Z,24.96
2018-05-03T12:02:05.357Z,24.83
2018-05-03T12:04:33.983Z,24.79
2018-05-03T12:07:02.603Z,24.74
2018-05-03T12:09:31.245Z,24.39
2018-05-03T12:11:59.819Z,23.96
2018-05-03T12:14:28.405Z,23.47
2018-05-03T12:16:56.960Z,22.84
2018-05-03T12:19:25.537Z,21.95
2018-05-03T12:21:54.304Z,21.29
2018-05-03T12:24:22.902Z,20.22
2018-05-03T12:26:51.639Z,19.85
2018-05-03T12:29:20.243Z,19.57
2018-05-03T12:31:48.822Z,19.45
2018-05-03T12:34:17.398Z,19.18
2018-05-03T12:36:45.986Z,19.18
2018-05-03T12:39:14.547Z,19.49
2018-05-03T12:41:43.113Z,19.62
2018-05-03T12:44:11.696Z,19.78
2018-05-03T12:46:40.320Z,20.01
2018-05-03T12:49:08.898Z,20.12
2018-05-03T12:51:37.487Z,20.19
2018-05-03T12:54:06.056Z,20.24
2018-05-03T12:56:34.668Z,20.19
2018-05-03T12:59:03.266Z,20.24
2018-05-03T13:01:31.883Z,20.30
2018-05-03T13:04:00.456Z,20.40
2018-05-03T13:06:29.038Z,20.51
2018-05-03T13:08:57.606Z,20.55
2018-05-03T13:11:26.175Z,20.60
2018-05-03T13:13:54.870Z,20.63
2018-05-03T13:16:23.549Z,20.41
2018-05-03T13:18:52.417Z,20.05
2018-05-03T13:21:21.000Z,19.96
2018-05-03T13:23:49.649Z,19.93
2018-05-03T13:26:17.859Z,19.94
2018-05-03T13:28:46.416Z,19.95
2018-05-03T13:31:15.027Z,19.91
2018-05-03T13:33:43.576Z,19.96
2018-05-03T13:36:12.188Z,20.10
2018-05-03T13:38:40.754Z,20.22
2018-05-03T13:41:09.256Z,20.27
2018-05-03T13:43:38.010Z,20.39
2018-05-03T13:46:06.668Z,20.50
2018-05-03T13:48:35.243Z,20.55
2018-05-03T13:51:03.459Z,20.63
2018-05-03T13:53:32.027Z,20.70
2018-05-03T13:56:00.715Z,20.70
2018-05-03T13:58:29.292Z,20.59
2018-05-03T14:00:57.848Z,20.59
2018-05-03T14:03:26.465Z,20.62
2018-05-03T14:05:55.095Z,20.68
2018-05-03T14:08:23.664Z,20.70
2018-05-03T14:10:53.014Z,20.61
2018-05-03T14:13:21.662Z,20.42
2018-05-03T14:15:50.274Z,20.15
2018-05-03T14:18:18.879Z,19.86
2018-05-03T14:20:47.538Z,19.87
2018-05-03T14:23:16.292Z,19.98
2018-05-03T14:25:44.891Z,20.11
2018-05-03T14:28:13.483Z,20.25
2018-05-03T14:30:42.092Z,20.61
2018-05-03T14:33:10.734Z,20.83
2018-05-03T14:35:39.342Z,21.07
2018-05-03T14:38:07.918Z,21.33
2018-05-03T14:40:36.510Z,21.66
2018-05-03T14:43:05.065Z,21.72
2018-05-03T14:45:33.689Z,21.85
2018-05-03T14:48:02.268Z,21.83
2018-05-03T14:50:30.854Z,21.93
2018-05-03T14:52:59.469Z,22.13
2018-05-03T14:55:28.039Z,22.35
2018-05-03T14:57:56.683Z,22.48
2018-05-03T15:00:25.289Z,22.52
2018-05-03T15:02:53.935Z,22.51
2018-05-03T15:05:22.520Z,22.49
2018-05-03T15:07:51.180Z,22.50
2018-05-03T15:10:19.382Z,22.46
2018-05-03T15:12:48.184Z,22.45
2018-05-03T15:15:16.717Z,22.47
2018-05-03T15:17:45.296Z,22.38
2018-05-03T15:20:13.878Z,22.44
2018-05-03T15:22:42.496Z,22.48
2018-05-03T15:25:11.075Z,22.54
2018-05-03T15:27:40.437Z,22.54
2018-05-03T15:30:09.048Z,22.60
2018-05-03T15:32:37.620Z,22.60
2018-05-03T15:35:06.022Z,22.63
2018-05-03T15:37:34.367Z,22.70
2018-05-03T15:40:02.994Z,22.66
2018-05-03T15:42:31.568Z,22.46
2018-05-03T15:44:59.839Z,22.49
2018-05-03T15:47:29.581Z,22.51
2018-05-03T15:49:58.402Z,22.51
2018-05-03T15:52:27.161Z,22.42
2018-05-03T15:54:55.853Z,22.41
2018-05-03T15:57:24.598Z,22.45
2018-05-03T15:59:53.182Z,22.48
2018-05-03T16:02:21.739Z,22.49
2018-05-03T16:04:50.295Z,22.51
2018-05-03T16:07:18.857Z,22.50
2018-05-03T16:09:47.441Z,22.45
2018-05-03T16:12:16.263Z,22.41
2018-05-03T16:14:44.841Z,22.44
2018-05-03T16:17:13.587Z,22.47
2018-05-03T16:19:42.403Z,22.49
2018-05-03T16:22:10.964Z,22.43
2018-05-03T16:24:39.527Z,22.40
2018-05-03T16:27:07.983Z,22.37
2018-05-03T16:29:36.757Z,22.32
2018-05-03T16:32:05.333Z,22.23
2018-05-03T16:34:34.029Z,22.17
2018-05-03T16:37:02.748Z,22.07
2018-05-03T16:39:31.331Z,22.01
2018-05-03T16:41:59.916Z,21.93
2018-05-03T16:44:28.491Z,21.93
2018-05-03T16:46:57.086Z,21.95
2018-05-03T16:49:25.663Z,21.83
2018-05-03T16:51:54.516Z,21.74
2018-05-03T16:54:23.199Z,21.71
2018-05-03T16:56:51.777Z,21.65
2018-05-03T16:59:20.448Z,21.55
2018-05-03T17:01:49.165Z,21.35
2018-05-03T17:04:17.742Z,21.27
2018-05-03T17:06:46.326Z,21.19
2018-05-03T17:09:14.914Z,21.14
2018-05-03T17:11:43.479Z,21.02
2018-05-03T17:14:12.108Z,20.88
2018-05-03T17:16:40.813Z,20.84
2018-05-03T17:19:09.410Z,20.75
2018-05-03T17:21:38.095Z,20.77
2018-05-03T17:24:06.668Z,20.72
2018-05-03T17:26:35.281Z,20.60
2018-05-03T17:29:03.939Z,20.59
2018-05-03T17:31:32.547Z,20.55
2018-05-03T17:34:01.102Z,20.51
2018-05-03T17:36:29.663Z,20.49
2018-05-03T17:38:58.046Z,20.47
2018-05-03T17:41:26.430Z,20.45
2018-05-03T17:43:55.000Z,20.51
2018-05-03T17:46:23.567Z,20.53
2018-05-03T17:48:52.241Z,20.58
2018-05-03T17:51:20.835Z,20.56
2018-05-03T17:53:49.574Z,20.57
2018-05-03T17:56:18.151Z,20.59
2018-05-03T17:58:46.745Z,20.58
2018-05-03T18:01:15.332Z,20.57
2018-05-03T18:03:43.912Z,20.55
2018-05-03T18:06:12.535Z,20.59
2018-05-03T18:08:41.856Z,20.58
2018-05-03T18:11:10.418Z,20.58
2018-05-03T18:13:38.990Z,20.54
2018-05-03T18:16:07.593Z,20.52
2018-05-03T18:18:36.423Z,20.44
2018-05-03T18:21:04.979Z,20.49
2018-05-03T18:23:33.540Z,20.45
2018-05-03T18:26:02.184Z,20.46
2018-05-03T18:28:30.750Z,20.49
2018-05-03T18:30:59.807Z,20.52
2018-05-03T18:33:29.291Z,20.48
2018-05-03T18:35:58.826Z,20.49
2018-05-03T18:38:27.404Z,20.46
2018-05-03T18:40:56.042Z,20.49
2018-05-03T18:43:35.301Z,20.46
2018-05-03T18:46:13.264Z,20.41
2018-05-03T18:48:44.051Z,20.36
2018-05-03T18:51:12.638Z,20.40
2018-05-03T18:53:41.030Z,20.38
2018-05-03T18:56:09.707Z,20.39
2018-05-03T18:58:38.717Z,20.37
2018-05-03T19:01:07.401Z,20.39
2018-05-03T19:03:36.155Z,20.33
2018-05-03T19:06:04.869Z,20.35
2018-05-03T19:08:33.531Z,20.30
2018-05-03T19:11:02.119Z,20.26
2018-05-03T19:13:32.196Z,20.25
2018-05-03T19:16:02.298Z,20.24
2018-05-03T19:18:30.972Z,20.18
2018-05-03T19:20:59.540Z,20.16
2018-05-03T19:23:28.105Z,20.21
2018-05-03T19:25:56.727Z,20.17
2018-05-03T19:28:25.353Z,20.13
2018-05-03T19:30:54.036Z,20.07
2018-05-03T19:33:22.622Z,20.07
2018-05-03T19:35:51.191Z,20.06
2018-05-03T19:38:19.751Z,19.99
2018-05-03T19:40:48.307Z,19.98
2018-05-03T19:43:16.896Z,19.94
2018-05-03T19:45:45.457Z,19.88
2018-05-03T19:48:14.058Z,19.84
2018-05-03T19:50:42.669Z,19.80
2018-05-03T19:53:11.463Z,19.77
2018-05-03T19:55:40.063Z,19.80
2018-05-03T19:58:09.422Z,19.85
2018-05-03T20:00:37.988Z,19.82
2018-05-03T20:03:06.560Z,19.83
2018-05-03T20:05:35.124Z,19.82
2018-05-03T20:08:03.709Z,19.81
2018-05-03T20:10:33.254Z,19.74
2018-05-03T20:13:01.915Z,19.67
2018-05-03T20:15:30.957Z,19.63
2018-05-03T20:17:59.536Z,19.63
2018-05-03T20:20:28.129Z,19.54
2018-05-03T20:22:56.471Z,19.56
2018-05-03T20:25:25.029Z,19.57
2018-05-03T20:27:54.412Z,19.57
2018-05-03T20:30:23.003Z,19.56
2018-05-03T20:32:51.603Z,19.54
2018-05-03T20:35:20.335Z,19.57
2018-05-03T20:37:48.938Z,19.58
2018-05-03T20:40:17.506Z,19.58
2018-05-03T20:42:46.092Z,19.53
2018-05-03T20:45:14.670Z,19.54
2018-05-03T20:47:43.772Z,19.52
2018-05-03T20:50:12.554Z,19.54
2018-05-03T20:52:41.124Z,19.54
2018-05-03T20:55:09.770Z,19.51
2018-05-03T20:57:38.384Z,19.44
2018-05-03T21:00:07.183Z,19.46
2018-05-03T21:02:35.748Z,19.43
2018-05-03T21:05:03.659Z,19.45
2018-05-03T21:07:32.228Z,19.42
2018-05-03T21:10:01.094Z,19.39
2018-05-03T21:12:29.676Z,19.32
2018-05-03T21:14:58.243Z,19.31
2018-05-03T21:17:26.859Z,19.29
2018-05-03T21:19:55.430Z,19.28
2018-05-03T21:22:24.039Z,19.25
2018-05-03T21:24:52.621Z,19.28
2018-05-03T21:27:20.871Z,19.27
2018-05-03T21:29:49.457Z,19.26
2018-05-03T21:32:18.021Z,19.23
2018-05-03T21:34:46.579Z,19.24
2018-05-03T21:37:15.214Z,19.23
2018-05-03T21:39:43.845Z,19.23
2018-05-03T21:42:12.479Z,19.28
2018-05-03T21:44:41.057Z,19.26
2018-05-03T21:47:09.647Z,19.26
2018-05-03T21:49:38.257Z,19.27
2018-05-03T21:52:06.871Z,19.24
2018-05-03T21:54:35.440Z,19.25
2018-05-03T21:57:04.007Z,19.24
2018-05-03T21:59:32.564Z,19.25
2018-05-03T22:02:01.133Z,19.26
2018-05-03T22:04:29.474Z,19.24
2018-05-03T22:06:58.042Z,19.26
2018-05-03T22:09:26.279Z,19.26
2018-05-03T22:11:54.832Z,19.21
2018-05-03T22:14:23.416Z,19.21
2018-05-03T22:16:52.003Z,19.26
2018-05-03T22:19:20.568Z,19.28
2018-05-03T22:21:50.022Z,19.30
2018-05-03T22:24:18.388Z,19.26
2018-05-03T22:26:46.984Z,19.26
2018-05-03T22:29:15.548Z,19.24
2018-05-03T22:31:44.116Z,19.25
2018-05-03T22:34:12.723Z,19.24
2018-05-03T22:36:41.360Z,19.25
2018-05-03T22:39:10.220Z,19.25
2018-05-03T22:41:38.839Z,19.25
2018-05-03T22:44:07.403Z,19.28
2018-05-03T22:46:35.998Z,19.28
2018-05-03T22:49:04.571Z,19.27
2018-05-03T22:51:33.197Z,19.25
2018-05-03T22:54:01.790Z,19.29
2018-05-03T22:56:30.402Z,19.30
2018-05-03T22:58:58.978Z,19.31
2018-05-03T23:01:27.546Z,19.31
2018-05-03T23:03:56.205Z,19.31
2018-05-03T23:06:24.799Z,19.30
2018-05-03T23:08:53.387Z,19.24
2018-05-03T23:11:22.018Z,19.23
2018-05-03T23:13:50.637Z,19.22
2018-05-03T23:16:19.191Z,19.22
2018-05-03T23:18:47.761Z,19.22
2018-05-03T23:21:16.323Z,19.25
2018-05-03T23:23:44.929Z,19.26
2018-05-03T23:26:13.520Z,19.27
2018-05-03T23:28:42.106Z,19.26
2018-05-03T23:31:10.741Z,19.26
2018-05-03T23:33:39.304Z,19.23
2018-05-03T23:36:07.911Z,19.26
2018-05-03T23:38:36.477Z,19.22
2018-05-03T23:41:05.039Z,19.20
2018-05-03T23:43:33.648Z,19.18
2018-05-03T23:46:02.220Z,19.17
2018-05-03T23:48:30.834Z,19.18
2018-05-03T23:50:59.399Z,19.18
2018-05-03T23:53:28.009Z,19.20
2018-05-03T23:55:56.227Z,19.18
2018-05-03T23:58:24.835Z,19.16
